createdAt,value
2023-04-22T00:03:28.981Z,5.69
2023-04-22T00:08:33.372Z,5.61
2023-04-22T00:13:38.081Z,5.62
2023-04-22T00:18:43.549Z,5.55
2023-04-22T00:23:47.954Z,5.56
2023-04-22T00:28:52.275Z,5.63
2023-04-22T00:33:57.548Z,5.48
2023-04-22T00:39:01.660Z,5.54
2023-04-22T00:44:05.707Z,5.56
2023-04-22T00:49:10.915Z,5.63
2023-04-22T00:54:15.142Z,5.60
2023-04-22T00:59:19.621Z,5.64
2023-04-22T01:04:25.906Z,5.53
2023-04-22T01:09:30.005Z,5.54
2023-04-22T01:14:34.703Z,5.55
2023-04-22T01:19:41.750Z,5.58
2023-04-22T01:24:47.904Z,5.43
2023-04-22T01:29:52.513Z,5.39
2023-04-22T01:34:56.621Z,5.34
2023-04-22T01:40:02.298Z,5.31
2023-04-22T01:45:07.821Z,5.20
2023-04-22T01:50:12.109Z,5.23
2023-04-22T01:55:17.971Z,5.27
2023-04-22T02:00:22.356Z,5.27
2023-04-22T02:05:27.408Z,5.27
2023-04-22T02:10:33.314Z,5.04
2023-04-22T02:15:37.521Z,4.94
2023-04-22T02:20:41.564Z,4.89
2023-04-22T02:25:51.712Z,4.71
2023-04-22T02:30:56.149Z,4.84
2023-04-22T02:36:00.602Z,4.89
2023-04-22T02:41:06.788Z,4.94
2023-04-22T02:46:14.033Z,4.85
2023-04-22T02:51:17.960Z,4.88
2023-04-22T02:56:23.322Z,4.88
2023-04-22T03:01:27.507Z,4.76
2023-04-22T03:06:35.632Z,4.71
2023-04-22T03:11:41.104Z,4.77
2023-04-22T03:16:45.638Z,4.70
2023-04-22T03:21:51.798Z,4.66
2023-04-22T03:26:59.239Z,4.61
2023-04-22T03:32:03.902Z,4.66
2023-04-22T03:37:12.315Z,4.61
2023-04-22T03:42:18.248Z,4.56
2023-04-22T03:47:23.327Z,4.60
2023-04-22T03:52:33.315Z,4.63
2023-04-22T03:57:41.000Z,4.62
2023-04-22T04:02:46.624Z,4.53
2023-04-22T04:07:54.497Z,4.48
2023-04-22T04:13:01.839Z,4.55
2023-04-22T04:18:14.071Z,4.64
2023-04-22T04:23:18.917Z,4.73
2023-04-22T04:28:25.569Z,4.65
2023-04-22T04:33:29.751Z,4.83
2023-04-22T04:38:34.229Z,4.95
2023-04-22T04:43:40.864Z,5.03
2023-04-22T04:48:54.920Z,5.17
2023-04-22T04:53:59.792Z,5.33
2023-04-22T04:59:10.629Z,5.49
2023-04-22T05:04:16.301Z,5.67
2023-04-22T05:09:21.387Z,5.88
2023-04-22T05:14:28.375Z,6.10
2023-04-22T05:19:33.138Z,6.34
2023-04-22T05:24:38.732Z,6.56
2023-04-22T05:29:44.482Z,6.83
2023-04-22T05:34:50.372Z,7.14
2023-04-22T05:39:54.693Z,7.41
2023-04-22T05:45:00.598Z,7.70
2023-04-22T05:50:07.784Z,8.00
2023-04-22T05:55:19.142Z,8.32
2023-04-22T06:00:24.605Z,8.63
2023-04-22T06:05:44.320Z,8.98
2023-04-22T06:10:48.338Z,9.32
2023-04-22T06:15:54.630Z,9.69
2023-04-22T06:20:59.422Z,10.08
2023-04-22T06:26:03.472Z,10.41
2023-04-22T06:31:09.269Z,10.81
2023-04-22T06:36:14.300Z,11.18
2023-04-22T06:41:21.500Z,11.54
2023-04-22T06:46:28.758Z,11.90
2023-04-22T06:52:03.120Z,12.28
2023-04-22T06:57:08.165Z,12.63
2023-04-22T07:02:13.736Z,13.19
2023-04-22T07:07:18.365Z,13.54
2023-04-22T07:12:24.081Z,13.68
2023-04-22T07:17:29.546Z,13.91
2023-04-22T07:22:34.138Z,14.16
2023-04-22T07:27:38.262Z,14.37
2023-04-22T07:32:43.745Z,14.60
2023-04-22T07:37:47.928Z,14.97
2023-04-22T07:42:51.956Z,15.17
2023-04-22T07:47:57.566Z,15.26
2023-04-22T07:53:01.922Z,15.41
2023-04-22T07:58:06.967Z,15.46
2023-04-22T08:03:12.525Z,15.75
2023-04-22T08:08:17.041Z,15.99
2023-04-22T08:13:21.141Z,16.16
2023-04-22T08:18:26.814Z,16.18
2023-04-22T08:23:31.414Z,16.36
2023-04-22T08:28:35.743Z,16.35
2023-04-22T08:33:41.631Z,16.68
2023-04-22T08:38:48.334Z,16.66
2023-04-22T08:43:54.678Z,16.75
2023-04-22T08:49:03.286Z,16.77
2023-04-22T08:54:07.418Z,16.98
2023-04-22T08:59:12.310Z,17.15
2023-04-22T09:04:19.056Z,17.26
2023-04-22T09:09:24.829Z,17.33
2023-04-22T09:14:28.928Z,17.14
2023-04-22T09:19:34.745Z,17.47
2023-04-22T09:24:42.499Z,17.44
2023-04-22T09:29:49.823Z,17.55
2023-04-22T09:34:57.587Z,17.66
2023-04-22T09:40:01.674Z,17.88
2023-04-22T09:45:06.563Z,18.11
2023-04-22T09:50:13.066Z,18.17
2023-04-22T09:55:17.349Z,18.07
2023-04-22T10:00:22.482Z,17.99
2023-04-22T10:05:29.766Z,18.23
2023-04-22T10:10:34.487Z,18.36
2023-04-22T10:15:41.377Z,18.41
2023-04-22T10:20:47.496Z,18.28
2023-04-22T10:25:54.683Z,18.46
2023-04-22T10:30:59.044Z,18.47
2023-04-22T10:36:21.021Z,18.55
2023-04-22T10:41:25.695Z,18.81
2023-04-22T10:47:00.946Z,18.93
2023-04-22T10:52:09.315Z,19.08
2023-04-22T10:57:15.430Z,19.40
2023-04-22T11:02:21.200Z,19.59
2023-04-22T11:07:35.315Z,19.59
2023-04-22T11:12:43.301Z,19.25
2023-04-22T11:17:48.934Z,19.37
2023-04-22T11:22:55.333Z,19.82
2023-04-22T11:27:59.878Z,19.65
2023-04-22T11:33:04.418Z,19.61
2023-04-22T11:38:10.064Z,19.67
2023-04-22T11:43:14.202Z,20.20
2023-04-22T11:48:18.505Z,20.34
2023-04-22T11:53:24.299Z,20.87
2023-04-22T11:58:28.864Z,20.86
2023-04-22T12:03:35.492Z,20.74
2023-04-22T12:08:43.715Z,21.49
2023-04-22T12:13:47.831Z,21.49
2023-04-22T12:18:53.616Z,21.34
2023-04-22T12:24:00.473Z,21.62
2023-04-22T12:29:05.466Z,21.38
2023-04-22T12:34:09.585Z,21.17
2023-04-22T12:39:15.710Z,21.57
2023-04-22T12:44:19.994Z,21.43
2023-04-22T12:49:23.875Z,21.96
2023-04-22T12:54:29.099Z,22.64
2023-04-22T12:59:33.140Z,22.03
2023-04-22T13:04:37.546Z,22.20
2023-04-22T13:09:43.485Z,22.59
2023-04-22T13:14:47.785Z,22.75
2023-04-22T13:19:51.845Z,23.59
2023-04-22T13:24:57.382Z,23.32
2023-04-22T13:30:02.201Z,23.70
2023-04-22T13:35:08.036Z,23.84
2023-04-22T13:40:13.815Z,23.49
2023-04-22T13:45:18.035Z,23.86
2023-04-22T13:50:23.071Z,23.21
2023-04-22T13:55:29.565Z,23.95
2023-04-22T14:00:35.645Z,23.68
2023-04-22T14:05:40.872Z,23.46
2023-04-22T14:10:46.700Z,23.36
2023-04-22T14:15:51.523Z,23.70
2023-04-22T14:20:56.249Z,23.78
2023-04-22T14:26:02.213Z,22.80
2023-04-22T14:31:07.370Z,22.67
2023-04-22T14:36:11.872Z,22.91
2023-04-22T14:41:17.460Z,23.04
2023-04-22T14:46:21.743Z,23.87
2023-04-22T14:51:27.951Z,23.55
2023-04-22T14:56:34.439Z,23.62
2023-04-22T15:01:41.866Z,23.73
2023-04-22T15:06:46.786Z,23.11
2023-04-22T15:11:54.257Z,23.23
2023-04-22T15:16:58.700Z,23.23
2023-04-22T15:22:03.164Z,22.98
2023-04-22T15:27:09.117Z,22.39
2023-04-22T15:32:14.257Z,22.10
2023-04-22T15:37:18.250Z,21.10
2023-04-22T15:42:24.127Z,20.54
2023-04-22T15:47:29.569Z,19.92
2023-04-22T15:52:34.358Z,19.85
2023-04-22T15:57:40.116Z,19.73
2023-04-22T16:02:44.976Z,19.55
2023-04-22T16:07:49.303Z,19.31
2023-04-22T16:12:54.866Z,19.35
2023-04-22T16:17:58.733Z,19.04
2023-04-22T16:23:02.567Z,18.61
2023-04-22T16:28:08.822Z,18.53
2023-04-22T16:33:13.068Z,18.39
2023-04-22T16:38:17.018Z,18.22
2023-04-22T16:43:22.586Z,18.21
2023-04-22T16:48:26.905Z,18.10
2023-04-22T16:53:31.129Z,17.87
2023-04-22T16:58:36.711Z,17.68
2023-04-22T17:03:41.645Z,17.61
2023-04-22T17:08:46.242Z,17.46
2023-04-22T17:13:51.841Z,17.31
2023-04-22T17:18:56.298Z,17.11
2023-04-22T17:24:00.620Z,16.96
2023-04-22T17:29:06.615Z,16.79
2023-04-22T17:34:10.834Z,16.57
2023-04-22T17:39:15.327Z,16.45
2023-04-22T17:44:21.083Z,16.32
2023-04-22T17:49:25.350Z,16.17
2023-04-22T17:54:29.468Z,15.97
2023-04-22T17:59:42.715Z,15.76
2023-04-22T18:04:47.594Z,15.60
2023-04-22T18:09:51.871Z,15.40
2023-04-22T18:14:57.174Z,15.21
2023-04-22T18:20:10.249Z,15.05
2023-04-22T18:25:21.419Z,14.91
2023-04-22T18:30:26.968Z,14.76
2023-04-22T18:35:31.554Z,14.61
2023-04-22T18:40:35.952Z,14.56
2023-04-22T18:45:41.405Z,14.49
2023-04-22T18:50:45.613Z,14.43
2023-04-22T18:55:49.472Z,14.31
2023-04-22T19:00:54.654Z,14.20
2023-04-22T19:05:59.228Z,14.12
2023-04-22T19:11:03.314Z,14.02
2023-04-22T19:16:09.214Z,13.90
2023-04-22T19:21:13.531Z,13.77
2023-04-22T19:26:18.115Z,13.64
2023-04-22T19:31:24.187Z,13.44
2023-04-22T19:36:28.527Z,13.32
2023-04-22T19:41:33.567Z,13.12
2023-04-22T19:46:39.321Z,12.97
2023-04-22T19:51:43.976Z,12.80
2023-04-22T19:56:49.107Z,12.68
2023-04-22T20:01:55.070Z,12.54
2023-04-22T20:07:02.660Z,12.37
2023-04-22T20:12:07.874Z,12.17
2023-04-22T20:17:14.087Z,12.01
2023-04-22T20:22:18.754Z,11.85
2023-04-22T20:27:24.486Z,11.68
2023-04-22T20:32:31.663Z,11.58
2023-04-22T20:37:36.094Z,11.42
2023-04-22T20:42:40.457Z,11.25
2023-04-22T20:47:46.313Z,11.13
2023-04-22T20:52:52.289Z,10.98
2023-04-22T20:57:56.703Z,10.88
2023-04-22T21:03:02.420Z,10.79
2023-04-22T21:08:11.230Z,10.73
2023-04-22T21:13:16.055Z,10.58
2023-04-22T21:18:22.502Z,10.48
2023-04-22T21:23:27.358Z,10.36
2023-04-22T21:28:31.904Z,10.30
2023-04-22T21:33:37.705Z,10.19
2023-04-22T21:38:42.234Z,10.19
2023-04-22T21:43:46.582Z,10.11
2023-04-22T21:48:52.159Z,10.04
2023-04-22T21:53:56.158Z,9.91
2023-04-22T21:59:00.608Z,9.82
2023-04-22T22:04:06.502Z,9.76
2023-04-22T22:09:11.780Z,9.75
2023-04-22T22:14:16.308Z,9.71
2023-04-22T22:19:21.770Z,9.64
2023-04-22T22:24:25.812Z,9.58
2023-04-22T22:29:29.953Z,9.49
2023-04-22T22:34:35.563Z,9.40
2023-04-22T22:39:39.367Z,9.30
2023-04-22T22:44:43.600Z,9.26
2023-04-22T22:49:49.223Z,9.12
2023-04-22T22:54:53.200Z,9.11
2023-04-22T22:59:57.256Z,9.07
2023-04-22T23:05:03.691Z,9.07
2023-04-22T23:10:09.877Z,9.00
2023-04-22T23:15:13.922Z,8.91
2023-04-22T23:20:19.400Z,8.83
2023-04-22T23:25:24.507Z,8.78
2023-04-22T23:30:29.243Z,8.69
2023-04-22T23:35:36.387Z,8.68
2023-04-22T23:40:40.617Z,8.65
2023-04-22T23:45:44.489Z,8.62
2023-04-22T23:50:50.306Z,8.54
2023-04-22T23:55:54.852Z,8.52
